sensor_id;sensor_type;location;lat;lon;timestamp;temperature;humidity
32536;DHT22;18974;50.838;4.636;2023-07-13T00:01:31;16.60;99.90
32536;DHT22;18974;50.838;4.636;2023-07-13T00:03:57;16.60;99.90
32536;DHT22;18974;50.838;4.636;2023-07-13T00:06:23;16.50;99.90
32536;DHT22;18974;50.838;4.636;2023-07-13T00:08:49;16.50;99.90
32536;DHT22;18974;50.838;4.636;2023-07-13T00:11:16;16.60;99.90
32536;DHT22;18974;50.838;4.636;2023-07-13T00:13:43;16.60;99.90
32536;DHT22;18974;50.838;4.636;2023-07-13T00:16:10;16.60;99.90
32536;DHT22;18974;50.838;4.636;2023-07-13T00:18:37;16.60;99.90
32536;DHT22;18974;50.838;4.636;2023-07-13T00:21:03;16.60;99.90
32536;DHT22;18974;50.838;4.636;2023-07-13T00:23:37;16.50;99.90
32536;DHT22;18974;50.838;4.636;2023-07-13T00:26:04;16.40;99.90
32536;DHT22;18974;50.838;4.636;2023-07-13T00:28:31;16.40;99.90
32536;DHT22;18974;50.838;4.636;2023-07-13T00:30:57;16.40;99.90
32536;DHT22;18974;50.838;4.636;2023-07-13T00:33:23;16.40;99.90
32536;DHT22;18974;50.838;4.636;2023-07-13T00:35:49;16.40;99.90
32536;DHT22;18974;50.838;4.636;2023-07-13T00:38:15;16.30;99.90
32536;DHT22;18974;50.838;4.636;2023-07-13T00:40:41;16.30;99.90
32536;DHT22;18974;50.838;4.636;2023-07-13T00:43:16;16.30;99.90
32536;DHT22;18974;50.838;4.636;2023-07-13T00:48:08;16.20;99.90
32536;DHT22;18974;50.838;4.636;2023-07-13T00:50:34;16.20;99.90
32536;DHT22;18974;50.838;4.636;2023-07-13T00:53:00;16.30;99.90
32536;DHT22;18974;50.838;4.636;2023-07-13T00:55:26;16.30;99.90
32536;DHT22;18974;50.838;4.636;2023-07-13T00:57:52;16.20;99.90
32536;DHT22;18974;50.838;4.636;2023-07-13T01:00:20;16.20;99.90
32536;DHT22;18974;50.838;4.636;2023-07-13T01:02:48;16.10;99.90
32536;DHT22;18974;50.838;4.636;2023-07-13T01:05:17;16.00;99.90
32536;DHT22;18974;50.838;4.636;2023-07-13T01:07:44;16.00;99.90
32536;DHT22;18974;50.838;4.636;2023-07-13T01:10:12;16.00;99.90
32536;DHT22;18974;50.838;4.636;2023-07-13T01:12:37;16.00;99.90
32536;DHT22;18974;50.838;4.636;2023-07-13T01:15:04;15.90;99.90
32536;DHT22;18974;50.838;4.636;2023-07-13T01:17:31;15.90;99.90
32536;DHT22;18974;50.838;4.636;2023-07-13T01:19:58;15.90;99.90
32536;DHT22;18974;50.838;4.636;2023-07-13T01:22:24;15.90;99.90
32536;DHT22;18974;50.838;4.636;2023-07-13T01:24:52;15.80;99.90
32536;DHT22;18974;50.838;4.636;2023-07-13T01:27:22;15.80;99.90
32536;DHT22;18974;50.838;4.636;2023-07-13T01:29:50;15.90;99.90
32536;DHT22;18974;50.838;4.636;2023-07-13T01:32:19;15.80;99.90
32536;DHT22;18974;50.838;4.636;2023-07-13T01:34:53;15.90;99.90
32536;DHT22;18974;50.838;4.636;2023-07-13T01:37:23;15.80;99.90
32536;DHT22;18974;50.838;4.636;2023-07-13T01:39:49;15.90;99.90
32536;DHT22;18974;50.838;4.636;2023-07-13T01:42:15;16.00;99.90
32536;DHT22;18974;50.838;4.636;2023-07-13T01:44:41;16.00;99.90
32536;DHT22;18974;50.838;4.636;2023-07-13T01:47:06;15.90;99.90
32536;DHT22;18974;50.838;4.636;2023-07-13T01:49:32;15.90;99.90
32536;DHT22;18974;50.838;4.636;2023-07-13T01:51:58;15.90;99.90
32536;DHT22;18974;50.838;4.636;2023-07-13T01:54:23;15.90;99.90
32536;DHT22;18974;50.838;4.636;2023-07-13T01:56:49;15.90;99.90
32536;DHT22;18974;50.838;4.636;2023-07-13T01:59:15;15.90;99.90
32536;DHT22;18974;50.838;4.636;2023-07-13T02:01:40;15.90;99.90
32536;DHT22;18974;50.838;4.636;2023-07-13T02:04:06;16.00;99.90
32536;DHT22;18974;50.838;4.636;2023-07-13T02:06:32;15.90;99.90
32536;DHT22;18974;50.838;4.636;2023-07-13T02:08:58;15.90;99.90
32536;DHT22;18974;50.838;4.636;2023-07-13T02:11:23;15.90;99.90
32536;DHT22;18974;50.838;4.636;2023-07-13T02:13:50;15.80;99.90
32536;DHT22;18974;50.838;4.636;2023-07-13T02:16:16;15.80;99.90
32536;DHT22;18974;50.838;4.636;2023-07-13T02:18:42;15.80;99.90
32536;DHT22;18974;50.838;4.636;2023-07-13T02:21:07;15.70;99.90
32536;DHT22;18974;50.838;4.636;2023-07-13T02:23:33;15.70;99.90
32536;DHT22;18974;50.838;4.636;2023-07-13T02:26:00;15.70;99.90
32536;DHT22;18974;50.838;4.636;2023-07-13T02:28:28;15.70;99.90
32536;DHT22;18974;50.838;4.636;2023-07-13T02:30:53;15.70;99.90
32536;DHT22;18974;50.838;4.636;2023-07-13T02:33:19;15.70;99.90
32536;DHT22;18974;50.838;4.636;2023-07-13T02:35:45;15.80;99.90
32536;DHT22;18974;50.838;4.636;2023-07-13T02:38:11;15.70;99.90
32536;DHT22;18974;50.838;4.636;2023-07-13T02:40:36;15.70;99.90
32536;DHT22;18974;50.838;4.636;2023-07-13T02:43:03;15.80;99.90
32536;DHT22;18974;50.838;4.636;2023-07-13T02:45:28;15.80;99.90
32536;DHT22;18974;50.838;4.636;2023-07-13T02:47:54;15.70;99.90
32536;DHT22;18974;50.838;4.636;2023-07-13T02:50:20;15.60;99.90
32536;DHT22;18974;50.838;4.636;2023-07-13T02:52:46;15.60;99.90
32536;DHT22;18974;50.838;4.636;2023-07-13T02:55:12;15.60;99.90
32536;DHT22;18974;50.838;4.636;2023-07-13T02:57:37;15.60;99.90
32536;DHT22;18974;50.838;4.636;2023-07-13T03:00:04;15.60;99.90
32536;DHT22;18974;50.838;4.636;2023-07-13T03:02:33;15.60;99.90
32536;DHT22;18974;50.838;4.636;2023-07-13T03:05:00;15.60;99.90
32536;DHT22;18974;50.838;4.636;2023-07-13T03:07:25;15.60;99.90
32536;DHT22;18974;50.838;4.636;2023-07-13T03:09:58;15.60;99.90
32536;DHT22;18974;50.838;4.636;2023-07-13T03:12:24;15.60;99.90
32536;DHT22;18974;50.838;4.636;2023-07-13T03:14:51;15.60;99.90
32536;DHT22;18974;50.838;4.636;2023-07-13T03:17:16;15.60;99.90
32536;DHT22;18974;50.838;4.636;2023-07-13T03:19:42;15.60;99.90
32536;DHT22;18974;50.838;4.636;2023-07-13T03:22:09;15.60;99.90
32536;DHT22;18974;50.838;4.636;2023-07-13T03:24:35;15.60;99.90
32536;DHT22;18974;50.838;4.636;2023-07-13T03:27:05;15.60;99.90
32536;DHT22;18974;50.838;4.636;2023-07-13T03:29:31;15.50;99.90
32536;DHT22;18974;50.838;4.636;2023-07-13T03:31:57;15.50;99.90
32536;DHT22;18974;50.838;4.636;2023-07-13T03:34:22;15.50;99.90
32536;DHT22;18974;50.838;4.636;2023-07-13T03:36:48;15.40;99.90
32536;DHT22;18974;50.838;4.636;2023-07-13T03:39:14;15.30;99.90
32536;DHT22;18974;50.838;4.636;2023-07-13T03:41:39;15.40;99.90
32536;DHT22;18974;50.838;4.636;2023-07-13T03:44:05;15.40;99.90
32536;DHT22;18974;50.838;4.636;2023-07-13T03:46:31;15.40;99.90
32536;DHT22;18974;50.838;4.636;2023-07-13T03:48:57;15.50;99.90
32536;DHT22;18974;50.838;4.636;2023-07-13T03:51:22;15.50;99.90
32536;DHT22;18974;50.838;4.636;2023-07-13T03:53:50;15.40;99.90
32536;DHT22;18974;50.838;4.636;2023-07-13T03:56:17;15.40;99.90
32536;DHT22;18974;50.838;4.636;2023-07-13T03:58:47;15.40;99.90
32536;DHT22;18974;50.838;4.636;2023-07-13T04:01:14;15.30;99.90
32536;DHT22;18974;50.838;4.636;2023-07-13T04:03:41;15.30;99.90
32536;DHT22;18974;50.838;4.636;2023-07-13T04:06:12;15.30;99.90
32536;DHT22;18974;50.838;4.636;2023-07-13T04:08:40;15.50;99.90
32536;DHT22;18974;50.838;4.636;2023-07-13T04:11:06;15.60;99.90
32536;DHT22;18974;50.838;4.636;2023-07-13T04:13:32;15.70;99.90
32536;DHT22;18974;50.838;4.636;2023-07-13T04:15:58;15.70;99.90
32536;DHT22;18974;50.838;4.636;2023-07-13T04:18:23;15.80;99.90
32536;DHT22;18974;50.838;4.636;2023-07-13T04:20:50;15.90;99.90
32536;DHT22;18974;50.838;4.636;2023-07-13T04:23:17;15.90;99.90
32536;DHT22;18974;50.838;4.636;2023-07-13T04:25:47;16.00;99.90
32536;DHT22;18974;50.838;4.636;2023-07-13T04:28:15;16.00;99.90
32536;DHT22;18974;50.838;4.636;2023-07-13T04:30:41;16.10;99.90
32536;DHT22;18974;50.838;4.636;2023-07-13T04:33:07;16.20;99.90
32536;DHT22;18974;50.838;4.636;2023-07-13T04:35:34;16.30;99.90
32536;DHT22;18974;50.838;4.636;2023-07-13T04:38:00;16.30;99.90
32536;DHT22;18974;50.838;4.636;2023-07-13T04:40:27;16.40;99.90
32536;DHT22;18974;50.838;4.636;2023-07-13T04:42:53;16.40;99.90
32536;DHT22;18974;50.838;4.636;2023-07-13T04:45:19;16.40;99.90
32536;DHT22;18974;50.838;4.636;2023-07-13T04:47:45;16.50;99.90
32536;DHT22;18974;50.838;4.636;2023-07-13T04:50:13;16.60;99.90
32536;DHT22;18974;50.838;4.636;2023-07-13T04:52:44;16.50;99.90
32536;DHT22;18974;50.838;4.636;2023-07-13T04:55:10;16.50;99.90
32536;DHT22;18974;50.838;4.636;2023-07-13T04:57:36;16.60;99.90
32536;DHT22;18974;50.838;4.636;2023-07-13T05:00:02;16.70;99.90
32536;DHT22;18974;50.838;4.636;2023-07-13T05:02:31;16.80;99.90
32536;DHT22;18974;50.838;4.636;2023-07-13T05:04:58;16.90;99.90
32536;DHT22;18974;50.838;4.636;2023-07-13T05:07:24;17.10;99.90
32536;DHT22;18974;50.838;4.636;2023-07-13T05:09:50;17.10;99.90
32536;DHT22;18974;50.838;4.636;2023-07-13T05:12:15;17.20;99.90
32536;DHT22;18974;50.838;4.636;2023-07-13T05:14:41;17.20;99.90
32536;DHT22;18974;50.838;4.636;2023-07-13T05:17:07;17.20;99.90
32536;DHT22;18974;50.838;4.636;2023-07-13T05:19:33;17.20;99.90
32536;DHT22;18974;50.838;4.636;2023-07-13T05:21:58;17.20;99.90
32536;DHT22;18974;50.838;4.636;2023-07-13T05:24:24;17.10;99.90
32536;DHT22;18974;50.838;4.636;2023-07-13T05:26:50;17.20;99.90
32536;DHT22;18974;50.838;4.636;2023-07-13T05:29:16;17.30;99.90
32536;DHT22;18974;50.838;4.636;2023-07-13T05:31:42;17.40;99.90
32536;DHT22;18974;50.838;4.636;2023-07-13T05:34:07;17.40;99.90
32536;DHT22;18974;50.838;4.636;2023-07-13T05:36:33;17.40;99.90
32536;DHT22;18974;50.838;4.636;2023-07-13T05:38:59;17.40;99.90
32536;DHT22;18974;50.838;4.636;2023-07-13T05:41:25;17.50;99.90
32536;DHT22;18974;50.838;4.636;2023-07-13T05:43:50;17.50;99.90
32536;DHT22;18974;50.838;4.636;2023-07-13T05:46:16;17.60;99.90
32536;DHT22;18974;50.838;4.636;2023-07-13T05:48:42;17.60;99.90
32536;DHT22;18974;50.838;4.636;2023-07-13T05:51:07;17.70;99.90
32536;DHT22;18974;50.838;4.636;2023-07-13T05:53:34;17.80;99.90
32536;DHT22;18974;50.838;4.636;2023-07-13T05:56:00;17.90;99.90
32536;DHT22;18974;50.838;4.636;2023-07-13T05:58:25;17.90;99.90
32536;DHT22;18974;50.838;4.636;2023-07-13T06:01:02;17.90;99.90
32536;DHT22;18974;50.838;4.636;2023-07-13T06:03:28;17.90;99.90
32536;DHT22;18974;50.838;4.636;2023-07-13T06:05:54;17.90;99.90
32536;DHT22;18974;50.838;4.636;2023-07-13T06:08:20;18.00;99.90
32536;DHT22;18974;50.838;4.636;2023-07-13T06:10:46;18.10;99.90
32536;DHT22;18974;50.838;4.636;2023-07-13T06:13:12;18.00;99.90
32536;DHT22;18974;50.838;4.636;2023-07-13T06:15:37;18.10;99.90
32536;DHT22;18974;50.838;4.636;2023-07-13T06:18:03;18.10;99.90
32536;DHT22;18974;50.838;4.636;2023-07-13T06:20:29;18.20;99.90
32536;DHT22;18974;50.838;4.636;2023-07-13T06:22:54;18.30;99.90
32536;DHT22;18974;50.838;4.636;2023-07-13T06:25:20;18.40;99.90
32536;DHT22;18974;50.838;4.636;2023-07-13T06:27:46;18.50;99.90
32536;DHT22;18974;50.838;4.636;2023-07-13T06:30:12;18.60;99.90
32536;DHT22;18974;50.838;4.636;2023-07-13T06:32:38;18.70;99.90
32536;DHT22;18974;50.838;4.636;2023-07-13T06:35:04;18.80;99.90
32536;DHT22;18974;50.838;4.636;2023-07-13T06:37:29;18.90;99.90
32536;DHT22;18974;50.838;4.636;2023-07-13T06:39:55;18.80;99.90
32536;DHT22;18974;50.838;4.636;2023-07-13T06:42:21;18.80;99.90
32536;DHT22;18974;50.838;4.636;2023-07-13T06:44:46;19.00;99.90
32536;DHT22;18974;50.838;4.636;2023-07-13T06:47:12;19.00;99.90
32536;DHT22;18974;50.838;4.636;2023-07-13T06:49:37;19.10;99.90
32536;DHT22;18974;50.838;4.636;2023-07-13T06:52:03;19.30;99.90
32536;DHT22;18974;50.838;4.636;2023-07-13T06:54:29;19.40;99.90
32536;DHT22;18974;50.838;4.636;2023-07-13T06:56:55;19.60;99.90
32536;DHT22;18974;50.838;4.636;2023-07-13T06:59:20;19.60;99.90
32536;DHT22;18974;50.838;4.636;2023-07-13T07:01:46;19.80;99.90
32536;DHT22;18974;50.838;4.636;2023-07-13T07:04:12;19.90;99.90
32536;DHT22;18974;50.838;4.636;2023-07-13T07:06:37;20.00;99.90
32536;DHT22;18974;50.838;4.636;2023-07-13T07:09:03;20.20;99.90
32536;DHT22;18974;50.838;4.636;2023-07-13T07:11:29;20.20;99.90
32536;DHT22;18974;50.838;4.636;2023-07-13T07:13:54;20.30;99.90
32536;DHT22;18974;50.838;4.636;2023-07-13T07:16:21;20.40;99.90
32536;DHT22;18974;50.838;4.636;2023-07-13T07:18:47;20.40;99.90
32536;DHT22;18974;50.838;4.636;2023-07-13T07:21:13;20.40;99.90
32536;DHT22;18974;50.838;4.636;2023-07-13T07:23:39;20.60;99.90
32536;DHT22;18974;50.838;4.636;2023-07-13T07:26:05;20.60;99.90
32536;DHT22;18974;50.838;4.636;2023-07-13T07:28:34;20.60;99.90
32536;DHT22;18974;50.838;4.636;2023-07-13T07:30:59;20.60;99.90
32536;DHT22;18974;50.838;4.636;2023-07-13T07:33:25;20.70;99.90
32536;DHT22;18974;50.838;4.636;2023-07-13T07:35:51;20.90;99.90
32536;DHT22;18974;50.838;4.636;2023-07-13T07:38:17;21.10;99.90
32536;DHT22;18974;50.838;4.636;2023-07-13T07:40:43;21.30;99.90
32536;DHT22;18974;50.838;4.636;2023-07-13T07:43:10;21.40;99.90
32536;DHT22;18974;50.838;4.636;2023-07-13T07:45:36;21.20;99.90
32536;DHT22;18974;50.838;4.636;2023-07-13T07:48:03;21.30;99.90
32536;DHT22;18974;50.838;4.636;2023-07-13T07:50:29;21.50;99.90
32536;DHT22;18974;50.838;4.636;2023-07-13T07:52:55;21.50;99.90
32536;DHT22;18974;50.838;4.636;2023-07-13T07:55:22;21.50;99.90
32536;DHT22;18974;50.838;4.636;2023-07-13T07:57:48;21.40;99.90
32536;DHT22;18974;50.838;4.636;2023-07-13T08:00:14;21.50;99.90
32536;DHT22;18974;50.838;4.636;2023-07-13T08:02:40;21.50;99.90
32536;DHT22;18974;50.838;4.636;2023-07-13T08:05:09;21.50;99.90
32536;DHT22;18974;50.838;4.636;2023-07-13T08:07:39;21.50;99.90
32536;DHT22;18974;50.838;4.636;2023-07-13T08:10:06;21.60;99.90
32536;DHT22;18974;50.838;4.636;2023-07-13T08:12:36;21.80;99.90
32536;DHT22;18974;50.838;4.636;2023-07-13T08:15:03;21.80;99.90
32536;DHT22;18974;50.838;4.636;2023-07-13T08:17:28;21.80;99.90
32536;DHT22;18974;50.838;4.636;2023-07-13T08:19:54;21.60;99.90
32536;DHT22;18974;50.838;4.636;2023-07-13T08:22:20;21.50;99.90
32536;DHT22;18974;50.838;4.636;2023-07-13T08:24:46;21.70;99.90
32536;DHT22;18974;50.838;4.636;2023-07-13T08:27:13;21.80;99.90
32536;DHT22;18974;50.838;4.636;2023-07-13T08:29:39;21.90;99.90
32536;DHT22;18974;50.838;4.636;2023-07-13T08:32:06;21.90;99.90
32536;DHT22;18974;50.838;4.636;2023-07-13T08:34:35;22.00;99.90
32536;DHT22;18974;50.838;4.636;2023-07-13T08:37:01;21.90;99.90
32536;DHT22;18974;50.838;4.636;2023-07-13T08:39:26;22.00;99.90
32536;DHT22;18974;50.838;4.636;2023-07-13T08:42:01;22.00;99.90
32536;DHT22;18974;50.838;4.636;2023-07-13T08:47:02;21.90;99.90
32536;DHT22;18974;50.838;4.636;2023-07-13T08:49:28;21.90;99.90
32536;DHT22;18974;50.838;4.636;2023-07-13T08:52:11;22.00;99.90
32536;DHT22;18974;50.838;4.636;2023-07-13T08:54:45;22.20;99.90
32536;DHT22;18974;50.838;4.636;2023-07-13T08:57:17;22.40;99.90
32536;DHT22;18974;50.838;4.636;2023-07-13T08:59:44;22.50;99.90
32536;DHT22;18974;50.838;4.636;2023-07-13T09:02:26;22.90;99.90
32536;DHT22;18974;50.838;4.636;2023-07-13T09:05:03;22.80;99.90
32536;DHT22;18974;50.838;4.636;2023-07-13T09:10:46;22.40;99.90
32536;DHT22;18974;50.838;4.636;2023-07-13T09:13:28;22.70;99.90
32536;DHT22;18974;50.838;4.636;2023-07-13T09:15:55;22.90;99.90
32536;DHT22;18974;50.838;4.636;2023-07-13T09:21:13;22.90;99.90
32536;DHT22;18974;50.838;4.636;2023-07-13T09:23:40;22.90;99.90
32536;DHT22;18974;50.838;4.636;2023-07-13T09:26:21;23.00;99.90
32536;DHT22;18974;50.838;4.636;2023-07-13T09:29:16;23.20;99.90
32536;DHT22;18974;50.838;4.636;2023-07-13T09:31:49;23.50;99.90
32536;DHT22;18974;50.838;4.636;2023-07-13T09:34:17;23.40;99.90
32536;DHT22;18974;50.838;4.636;2023-07-13T09:36:43;23.40;99.90
32536;DHT22;18974;50.838;4.636;2023-07-13T09:39:14;23.60;99.90
32536;DHT22;18974;50.838;4.636;2023-07-13T09:44:34;23.50;99.90
32536;DHT22;18974;50.838;4.636;2023-07-13T09:47:01;23.80;99.90
32536;DHT22;18974;50.838;4.636;2023-07-13T09:49:35;23.80;99.90
32536;DHT22;18974;50.838;4.636;2023-07-13T09:52:04;23.80;99.90
32536;DHT22;18974;50.838;4.636;2023-07-13T09:54:33;23.70;99.90
32536;DHT22;18974;50.838;4.636;2023-07-13T09:57:00;23.60;99.90
32536;DHT22;18974;50.838;4.636;2023-07-13T09:59:35;23.90;99.90
32536;DHT22;18974;50.838;4.636;2023-07-13T10:02:01;24.40;99.90
32536;DHT22;18974;50.838;4.636;2023-07-13T10:04:32;24.70;99.90
32536;DHT22;18974;50.838;4.636;2023-07-13T10:07:11;25.10;99.90
32536;DHT22;18974;50.838;4.636;2023-07-13T10:09:38;25.10;99.90
32536;DHT22;18974;50.838;4.636;2023-07-13T10:12:13;25.20;99.90
32536;DHT22;18974;50.838;4.636;2023-07-13T10:14:41;25.20;99.90
32536;DHT22;18974;50.838;4.636;2023-07-13T10:17:12;25.20;99.90
32536;DHT22;18974;50.838;4.636;2023-07-13T10:19:39;25.00;99.90
32536;DHT22;18974;50.838;4.636;2023-07-13T10:22:12;24.80;99.90
32536;DHT22;18974;50.838;4.636;2023-07-13T10:24:39;24.70;99.90
32536;DHT22;18974;50.838;4.636;2023-07-13T10:27:21;24.70;99.90
32536;DHT22;18974;50.838;4.636;2023-07-13T10:30:02;24.60;99.90
32536;DHT22;18974;50.838;4.636;2023-07-13T10:32:29;24.40;99.90
32536;DHT22;18974;50.838;4.636;2023-07-13T10:34:55;24.10;99.90
32536;DHT22;18974;50.838;4.636;2023-07-13T10:37:26;24.00;99.90
32536;DHT22;18974;50.838;4.636;2023-07-13T10:39:55;24.20;99.90
32536;DHT22;18974;50.838;4.636;2023-07-13T10:42:42;24.00;99.90
32536;DHT22;18974;50.838;4.636;2023-07-13T10:45:21;23.80;99.90
32536;DHT22;18974;50.838;4.636;2023-07-13T10:47:50;23.90;99.90
32536;DHT22;18974;50.838;4.636;2023-07-13T10:50:23;24.00;99.90
32536;DHT22;18974;50.838;4.636;2023-07-13T10:53:01;24.20;99.90
32536;DHT22;18974;50.838;4.636;2023-07-13T11:03:47;25.10;99.90
32536;DHT22;18974;50.838;4.636;2023-07-13T11:11:33;25.00;99.90
32536;DHT22;18974;50.838;4.636;2023-07-13T11:14:01;25.10;99.30
32536;DHT22;18974;50.838;4.636;2023-07-13T11:16:43;25.10;99.90
32536;DHT22;18974;50.838;4.636;2023-07-13T11:22:02;25.30;98.90
32536;DHT22;18974;50.838;4.636;2023-07-13T11:25:01;25.30;98.90
32536;DHT22;18974;50.838;4.636;2023-07-13T11:27:45;25.30;99.90
32536;DHT22;18974;50.838;4.636;2023-07-13T11:30:22;25.80;99.90
32536;DHT22;18974;50.838;4.636;2023-07-13T11:33:23;25.80;99.50
32536;DHT22;18974;50.838;4.636;2023-07-13T11:36:15;25.60;98.70
32536;DHT22;18974;50.838;4.636;2023-07-13T11:39:09;25.80;98.60
32536;DHT22;18974;50.838;4.636;2023-07-13T11:41:45;25.50;98.40
32536;DHT22;18974;50.838;4.636;2023-07-13T11:44:20;25.20;99.90
32536;DHT22;18974;50.838;4.636;2023-07-13T11:46:55;25.00;99.20
32536;DHT22;18974;50.838;4.636;2023-07-13T11:49:24;25.10;99.90
32536;DHT22;18974;50.838;4.636;2023-07-13T11:51:51;25.10;99.90
32536;DHT22;18974;50.838;4.636;2023-07-13T11:54:31;25.30;98.90
32536;DHT22;18974;50.838;4.636;2023-07-13T11:59:43;25.80;99.90
32536;DHT22;18974;50.838;4.636;2023-07-13T12:02:16;26.30;99.20
32536;DHT22;18974;50.838;4.636;2023-07-13T12:04:43;26.40;97.20
32536;DHT22;18974;50.838;4.636;2023-07-13T12:07:17;26.60;97.40
32536;DHT22;18974;50.838;4.636;2023-07-13T12:09:44;26.40;98.40
32536;DHT22;18974;50.838;4.636;2023-07-13T12:12:21;26.30;98.50
32536;DHT22;18974;50.838;4.636;2023-07-13T12:14:51;26.20;96.80
32536;DHT22;18974;50.838;4.636;2023-07-13T12:17:22;26.20;98.20
32536;DHT22;18974;50.838;4.636;2023-07-13T12:19:52;25.90;97.60
32536;DHT22;18974;50.838;4.636;2023-07-13T12:22:19;25.80;97.00
32536;DHT22;18974;50.838;4.636;2023-07-13T12:24:46;25.80;97.20
32536;DHT22;18974;50.838;4.636;2023-07-13T12:27:25;25.70;98.00
32536;DHT22;18974;50.838;4.636;2023-07-13T12:30:00;25.50;98.40
32536;DHT22;18974;50.838;4.636;2023-07-13T12:32:27;25.40;98.70
32536;DHT22;18974;50.838;4.636;2023-07-13T12:35:04;25.50;99.10
32536;DHT22;18974;50.838;4.636;2023-07-13T12:37:35;25.50;99.30
32536;DHT22;18974;50.838;4.636;2023-07-13T12:40:01;25.40;98.90
32536;DHT22;18974;50.838;4.636;2023-07-13T12:42:32;25.20;98.40
32536;DHT22;18974;50.838;4.636;2023-07-13T12:47:42;24.80;98.90
32536;DHT22;18974;50.838;4.636;2023-07-13T12:50:16;24.90;99.10
32536;DHT22;18974;50.838;4.636;2023-07-13T12:52:44;25.00;99.90
32536;DHT22;18974;50.838;4.636;2023-07-13T12:55:16;25.10;99.30
32536;DHT22;18974;50.838;4.636;2023-07-13T12:57:54;25.30;99.10
32536;DHT22;18974;50.838;4.636;2023-07-13T13:00:28;25.20;99.30
32536;DHT22;18974;50.838;4.636;2023-07-13T13:02:56;25.20;99.20
32536;DHT22;18974;50.838;4.636;2023-07-13T13:05:25;25.20;99.90
32536;DHT22;18974;50.838;4.636;2023-07-13T13:07:51;24.90;99.90
32536;DHT22;18974;50.838;4.636;2023-07-13T13:10:17;24.70;99.90
32536;DHT22;18974;50.838;4.636;2023-07-13T13:12:43;24.70;99.90
32536;DHT22;18974;50.838;4.636;2023-07-13T13:15:10;24.70;99.90
32536;DHT22;18974;50.838;4.636;2023-07-13T13:17:37;24.60;99.90
32536;DHT22;18974;50.838;4.636;2023-07-13T13:20:20;24.40;99.90
32536;DHT22;18974;50.838;4.636;2023-07-13T13:22:46;24.10;99.90
32536;DHT22;18974;50.838;4.636;2023-07-13T13:25:14;23.40;99.90
32536;DHT22;18974;50.838;4.636;2023-07-13T13:27:44;22.80;99.90
32536;DHT22;18974;50.838;4.636;2023-07-13T13:30:12;22.30;99.90
32536;DHT22;18974;50.838;4.636;2023-07-13T13:32:40;21.80;99.90
32536;DHT22;18974;50.838;4.636;2023-07-13T13:35:17;21.70;99.90
32536;DHT22;18974;50.838;4.636;2023-07-13T13:37:44;21.70;99.90
32536;DHT22;18974;50.838;4.636;2023-07-13T13:40:28;21.90;99.90
32536;DHT22;18974;50.838;4.636;2023-07-13T13:42:56;22.40;99.90
32536;DHT22;18974;50.838;4.636;2023-07-13T13:45:22;22.80;99.90
32536;DHT22;18974;50.838;4.636;2023-07-13T13:47:49;23.00;99.90
32536;DHT22;18974;50.838;4.636;2023-07-13T13:50:21;23.10;99.90
32536;DHT22;18974;50.838;4.636;2023-07-13T13:52:49;23.30;99.90
32536;DHT22;18974;50.838;4.636;2023-07-13T13:55:20;23.30;99.90
32536;DHT22;18974;50.838;4.636;2023-07-13T13:57:47;23.40;99.90
32536;DHT22;18974;50.838;4.636;2023-07-13T14:00:14;23.50;99.90
32536;DHT22;18974;50.838;4.636;2023-07-13T14:02:44;23.50;99.90
32536;DHT22;18974;50.838;4.636;2023-07-13T14:05:20;23.80;99.90
32536;DHT22;18974;50.838;4.636;2023-07-13T14:07:46;24.00;99.90
32536;DHT22;18974;50.838;4.636;2023-07-13T14:10:15;24.20;99.90
32536;DHT22;18974;50.838;4.636;2023-07-13T14:12:47;24.40;99.90
32536;DHT22;18974;50.838;4.636;2023-07-13T14:15:27;24.70;99.90
32536;DHT22;18974;50.838;4.636;2023-07-13T14:17:53;24.90;99.90
32536;DHT22;18974;50.838;4.636;2023-07-13T14:20:21;24.90;99.90
32536;DHT22;18974;50.838;4.636;2023-07-13T14:22:49;25.10;99.90
32536;DHT22;18974;50.838;4.636;2023-07-13T14:25:17;25.00;99.90
32536;DHT22;18974;50.838;4.636;2023-07-13T14:27:44;25.00;99.90
32536;DHT22;18974;50.838;4.636;2023-07-13T14:30:18;25.00;99.90
32536;DHT22;18974;50.838;4.636;2023-07-13T14:32:44;25.20;99.90
32536;DHT22;18974;50.838;4.636;2023-07-13T14:35:12;25.20;99.90
32536;DHT22;18974;50.838;4.636;2023-07-13T14:37:39;25.10;99.90
32536;DHT22;18974;50.838;4.636;2023-07-13T14:40:17;25.20;99.90
32536;DHT22;18974;50.838;4.636;2023-07-13T14:42:43;25.20;99.90
32536;DHT22;18974;50.838;4.636;2023-07-13T14:45:16;25.10;99.90
32536;DHT22;18974;50.838;4.636;2023-07-13T14:47:43;25.00;99.90
32536;DHT22;18974;50.838;4.636;2023-07-13T14:50:19;24.90;99.90
32536;DHT22;18974;50.838;4.636;2023-07-13T14:52:45;24.80;99.90
32536;DHT22;18974;50.838;4.636;2023-07-13T14:55:15;24.80;99.90
32536;DHT22;18974;50.838;4.636;2023-07-13T14:57:41;24.60;99.90
32536;DHT22;18974;50.838;4.636;2023-07-13T15:00:18;24.40;99.90
32536;DHT22;18974;50.838;4.636;2023-07-13T15:02:53;24.40;99.90
32536;DHT22;18974;50.838;4.636;2023-07-13T15:05:26;24.20;99.90
32536;DHT22;18974;50.838;4.636;2023-07-13T15:07:53;24.10;99.90
32536;DHT22;18974;50.838;4.636;2023-07-13T15:10:24;23.90;99.90
32536;DHT22;18974;50.838;4.636;2023-07-13T15:13:00;24.10;99.90
32536;DHT22;18974;50.838;4.636;2023-07-13T15:15:31;24.30;99.90
32536;DHT22;18974;50.838;4.636;2023-07-13T15:17:59;24.60;99.90
32536;DHT22;18974;50.838;4.636;2023-07-13T15:20:28;24.90;99.90
32536;DHT22;18974;50.838;4.636;2023-07-13T15:22:54;24.90;99.90
32536;DHT22;18974;50.838;4.636;2023-07-13T15:25:23;24.80;99.90
32536;DHT22;18974;50.838;4.636;2023-07-13T15:27:51;24.70;99.90
32536;DHT22;18974;50.838;4.636;2023-07-13T15:30:17;24.50;99.90
32536;DHT22;18974;50.838;4.636;2023-07-13T15:32:43;24.50;99.90
32536;DHT22;18974;50.838;4.636;2023-07-13T15:35:18;24.50;99.90
32536;DHT22;18974;50.838;4.636;2023-07-13T15:37:44;24.30;99.90
32536;DHT22;18974;50.838;4.636;2023-07-13T15:40:11;24.20;99.90
32536;DHT22;18974;50.838;4.636;2023-07-13T15:42:38;24.00;99.90
32536;DHT22;18974;50.838;4.636;2023-07-13T15:45:04;24.00;99.90
32536;DHT22;18974;50.838;4.636;2023-07-13T15:47:31;24.00;99.90
32536;DHT22;18974;50.838;4.636;2023-07-13T15:49:57;24.20;99.90
32536;DHT22;18974;50.838;4.636;2023-07-13T15:52:24;24.20;99.90
32536;DHT22;18974;50.838;4.636;2023-07-13T15:54:50;24.20;99.90
32536;DHT22;18974;50.838;4.636;2023-07-13T15:57:19;24.10;99.90
32536;DHT22;18974;50.838;4.636;2023-07-13T15:59:45;23.80;99.90
32536;DHT22;18974;50.838;4.636;2023-07-13T16:02:17;23.80;99.90
32536;DHT22;18974;50.838;4.636;2023-07-13T16:04:43;23.80;99.90
32536;DHT22;18974;50.838;4.636;2023-07-13T16:07:14;23.60;99.90
32536;DHT22;18974;50.838;4.636;2023-07-13T16:09:41;23.50;99.90
32536;DHT22;18974;50.838;4.636;2023-07-13T16:12:11;23.50;99.90
32536;DHT22;18974;50.838;4.636;2023-07-13T16:14:38;23.50;99.90